createdAt,value
2018-06-12T00:02:27.769Z,16.80
2018-06-12T00:04:56.267Z,16.80
2018-06-12T00:07:24.960Z,16.80
2018-06-12T00:09:53.475Z,16.80
2018-06-12T00:12:21.935Z,16.70
2018-06-12T00:19:46.889Z,16.80
2018-06-12T00:22:15.366Z,16.70
2018-06-12T00:24:43.861Z,16.80
2018-06-12T00:27:12.320Z,16.80
2018-06-12T00:32:08.954Z,16.70
2018-06-12T00:34:37.426Z,16.80
2018-06-12T00:37:06.086Z,16.90
2018-06-12T00:39:40.086Z,16.90
2018-06-12T00:42:08.574Z,17.00
2018-06-12T00:44:37.114Z,17.00
2018-06-12T00:47:05.574Z,17.10
2018-06-12T00:49:34.295Z,17.10
2018-06-12T00:52:02.773Z,17.10
2018-06-12T00:54:31.298Z,17.10
2018-06-12T00:57:07.735Z,17.10
2018-06-12T00:59:45.817Z,17.10
2018-06-12T01:02:14.277Z,17.00
2018-06-12T01:04:43.370Z,17.00
2018-06-12T01:07:11.840Z,16.90
2018-06-12T01:09:40.404Z,17.00
2018-06-12T01:12:08.887Z,16.90
2018-06-12T01:14:37.940Z,17.00
2018-06-12T01:17:06.417Z,17.00
2018-06-12T01:19:34.878Z,17.10
2018-06-12T01:22:03.381Z,17.10
2018-06-12T01:24:31.818Z,17.10
2018-06-12T01:27:00.287Z,17.10
2018-06-12T01:29:28.748Z,17.00
2018-06-12T01:31:57.251Z,16.90
2018-06-12T01:34:25.701Z,16.80
2018-06-12T01:36:54.161Z,16.90
2018-06-12T01:39:23.710Z,17.00
2018-06-12T01:41:52.198Z,17.00
2018-06-12T01:44:20.672Z,17.10
2018-06-12T01:49:18.382Z,17.10
2018-06-12T01:51:46.802Z,17.20
2018-06-12T01:54:15.303Z,17.20
2018-06-12T01:56:43.788Z,17.30
2018-06-12T01:59:12.274Z,17.30
2018-06-12T02:01:40.729Z,17.40
2018-06-12T02:04:09.188Z,17.40
2018-06-12T02:06:37.649Z,17.30
2018-06-12T02:09:06.727Z,17.30
2018-06-12T02:11:35.238Z,17.20
2018-06-12T02:14:04.237Z,17.10
2018-06-12T02:16:32.694Z,17.00
2018-06-12T02:19:07.054Z,16.90
2018-06-12T02:21:35.559Z,16.90
2018-06-12T02:24:04.101Z,16.90
2018-06-12T02:26:32.577Z,17.00
2018-06-12T02:29:01.175Z,17.00
2018-06-12T02:31:29.618Z,17.00
2018-06-12T02:38:59.677Z,17.10
2018-06-12T02:41:28.466Z,17.10
2018-06-12T02:43:56.937Z,17.10
2018-06-12T02:51:21.739Z,17.00
2018-06-12T02:53:50.226Z,17.10
2018-06-12T02:58:46.892Z,17.10
2018-06-12T03:03:43.561Z,17.00
2018-06-12T03:08:40.165Z,17.10
2018-06-12T03:11:08.594Z,17.10
2018-06-12T03:16:06.021Z,17.10
2018-06-12T03:18:34.701Z,17.10
2018-06-12T03:21:03.186Z,17.10
2018-06-12T03:23:31.685Z,17.10
2018-06-12T03:26:00.738Z,17.10
2018-06-12T03:28:29.186Z,17.10
2018-06-12T03:30:57.641Z,17.10
2018-06-12T03:33:26.054Z,17.10
2018-06-12T03:35:54.472Z,17.10
2018-06-12T03:38:23.158Z,17.10
2018-06-12T03:40:51.809Z,17.10
2018-06-12T03:43:20.278Z,17.00
2018-06-12T03:45:48.717Z,17.00
2018-06-12T03:48:17.189Z,17.10
2018-06-12T03:50:45.634Z,17.20
2018-06-12T03:53:14.197Z,17.30
2018-06-12T03:55:42.671Z,17.30
2018-06-12T03:58:11.357Z,17.30
2018-06-12T04:00:39.813Z,17.30
2018-06-12T04:03:08.369Z,17.30
2018-06-12T04:05:36.822Z,17.30
2018-06-12T04:08:05.355Z,17.40
2018-06-12T04:10:33.818Z,17.40
2018-06-12T04:13:02.349Z,17.50
2018-06-12T04:15:30.874Z,17.60
2018-06-12T04:17:59.330Z,17.70
2018-06-12T04:20:27.780Z,17.70
2018-06-12T04:22:56.282Z,17.80
2018-06-12T04:25:24.745Z,17.90
2018-06-12T04:27:53.192Z,18.00
2018-06-12T04:32:49.845Z,19.80
2018-06-12T04:37:46.421Z,20.80
2018-06-12T04:40:14.846Z,21.60
2018-06-12T04:42:43.266Z,22.60
2018-06-12T04:45:11.986Z,23.70
2018-06-12T04:47:40.417Z,24.70
2018-06-12T04:50:08.917Z,25.20
2018-06-12T04:52:37.367Z,25.50
2018-06-12T04:55:05.838Z,25.50
2018-06-12T04:57:34.350Z,24.60
2018-06-12T05:00:03.006Z,23.90
2018-06-12T05:02:31.438Z,22.80
2018-06-12T05:04:59.934Z,22.00
2018-06-12T05:07:28.401Z,21.40
2018-06-12T05:12:24.966Z,20.00
2018-06-12T05:14:53.378Z,19.60
2018-06-12T05:17:21.916Z,19.40
2018-06-12T05:22:18.529Z,19.40
2018-06-12T05:24:46.945Z,19.70
2018-06-12T05:29:43.529Z,20.00
2018-06-12T05:32:12.019Z,19.90
2018-06-12T05:34:40.721Z,19.70
2018-06-12T05:37:09.154Z,19.50
2018-06-12T05:42:05.889Z,19.20
2018-06-12T05:44:34.336Z,19.20
2018-06-12T05:47:02.943Z,19.30
2018-06-12T05:49:31.380Z,19.20
2018-06-12T05:51:59.827Z,19.20
2018-06-12T05:54:28.245Z,19.00
2018-06-12T05:56:56.861Z,18.90
2018-06-12T05:59:25.279Z,18.70
2018-06-12T06:01:53.954Z,18.70
2018-06-12T06:04:22.401Z,18.90
2018-06-12T06:06:50.848Z,19.00
2018-06-12T06:09:19.275Z,19.00
2018-06-12T06:11:47.714Z,19.10
2018-06-12T06:14:16.157Z,19.20
2018-06-12T06:16:44.629Z,19.30
2018-06-12T06:19:13.344Z,19.30
2018-06-12T06:21:41.769Z,19.50
2018-06-12T06:24:10.205Z,19.50
2018-06-12T06:26:38.688Z,19.50
2018-06-12T06:29:07.109Z,19.60
2018-06-12T06:31:35.592Z,19.60
2018-06-12T06:34:04.020Z,19.60
2018-06-12T06:36:32.452Z,19.60
2018-06-12T06:39:00.910Z,19.60
2018-06-12T06:41:29.337Z,19.70
2018-06-12T06:43:57.996Z,19.70
2018-06-12T06:46:26.486Z,19.60
2018-06-12T06:48:54.968Z,19.50
2018-06-12T06:51:23.399Z,19.20
2018-06-12T06:53:51.862Z,19.00
2018-06-12T06:56:20.301Z,19.10
2018-06-12T06:58:48.767Z,19.10
2018-06-12T07:01:17.224Z,19.30
2018-06-12T07:03:45.686Z,19.30
2018-06-12T07:06:14.093Z,19.30
2018-06-12T07:08:42.746Z,19.30
2018-06-12T07:11:11.415Z,19.50
2018-06-12T07:13:39.846Z,19.50
2018-06-12T07:16:08.313Z,19.50
2018-06-12T07:18:36.760Z,19.60
2018-06-12T07:21:09.137Z,19.60
2018-06-12T07:23:37.586Z,20.00
2018-06-12T07:26:06.037Z,20.10
2018-06-12T07:28:34.470Z,20.20
2018-06-12T07:31:02.893Z,20.30
2018-06-12T07:33:31.418Z,20.40
2018-06-12T07:35:59.866Z,20.40
2018-06-12T07:38:28.311Z,20.70
2018-06-12T07:40:57.033Z,21.00
2018-06-12T07:43:25.509Z,21.10
2018-06-12T07:46:00.144Z,21.20
2018-06-12T07:48:28.738Z,21.20
2018-06-12T07:50:57.206Z,21.00
2018-06-12T07:53:25.674Z,20.80
2018-06-12T07:55:54.149Z,20.60
2018-06-12T07:58:22.590Z,20.40
2018-06-12T08:00:51.069Z,20.20
2018-06-12T08:03:19.587Z,20.10
2018-06-12T08:05:48.046Z,20.10
2018-06-12T08:08:16.548Z,20.20
2018-06-12T08:10:45.007Z,20.00
2018-06-12T08:13:13.476Z,20.00
2018-06-12T08:18:10.045Z,20.10
2018-06-12T08:20:38.703Z,20.10
2018-06-12T08:23:07.178Z,20.00
2018-06-12T08:25:35.659Z,20.10
2018-06-12T08:28:04.369Z,20.30
2018-06-12T08:33:01.188Z,20.20
2018-06-12T08:35:29.685Z,20.20
2018-06-12T08:37:58.090Z,20.20
2018-06-12T08:42:54.681Z,20.20
2018-06-12T08:45:23.163Z,20.10
2018-06-12T08:47:51.662Z,20.30
2018-06-12T08:50:20.158Z,20.50
2018-06-12T08:52:48.646Z,20.70
2018-06-12T08:55:17.144Z,21.10
2018-06-12T08:57:45.619Z,21.40
2018-06-12T09:00:14.075Z,21.70
2018-06-12T09:02:43.351Z,21.90
2018-06-12T09:05:11.826Z,22.10
2018-06-12T09:07:40.285Z,22.20
2018-06-12T09:10:08.760Z,22.50
2018-06-12T09:15:05.455Z,22.60
2018-06-12T09:17:33.921Z,22.50
2018-06-12T09:20:02.360Z,22.40
2018-06-12T09:22:30.883Z,22.20
2018-06-12T09:24:59.369Z,22.10
2018-06-12T09:27:27.902Z,22.30
2018-06-12T09:29:59.906Z,22.50
2018-06-12T09:32:28.434Z,22.50
2018-06-12T09:34:57.614Z,22.40
2018-06-12T09:37:26.122Z,22.50
2018-06-12T09:39:54.821Z,22.50
2018-06-12T09:42:23.314Z,22.40
2018-06-12T09:44:52.394Z,22.50
2018-06-12T09:47:21.718Z,22.60
2018-06-12T09:49:50.187Z,22.60
2018-06-12T09:52:18.730Z,22.80
2018-06-12T09:54:47.218Z,22.60
2018-06-12T09:57:15.687Z,22.70
2018-06-12T09:59:44.181Z,23.20
2018-06-12T10:02:12.641Z,23.20
2018-06-12T10:07:17.480Z,23.20
2018-06-12T10:12:14.143Z,22.80
2018-06-12T10:14:42.725Z,23.10
2018-06-12T10:17:11.255Z,23.40
2018-06-12T10:19:39.742Z,23.40
2018-06-12T10:22:08.230Z,23.50
2018-06-12T10:24:36.823Z,23.30
2018-06-12T10:27:05.342Z,23.10
2018-06-12T10:29:34.079Z,22.60
2018-06-12T10:32:02.806Z,22.70
2018-06-12T10:37:00.051Z,22.30
2018-06-12T10:39:28.534Z,22.20
2018-06-12T10:41:56.975Z,22.30
2018-06-12T10:44:25.450Z,22.30
2018-06-12T10:46:53.932Z,22.40
2018-06-12T10:49:22.430Z,22.70
2018-06-12T10:51:50.853Z,22.60
2018-06-12T10:54:19.317Z,22.70
2018-06-12T10:56:47.838Z,22.80
2018-06-12T10:59:16.286Z,22.90
2018-06-12T11:01:44.774Z,22.90
2018-06-12T11:04:13.226Z,22.50
2018-06-12T11:06:41.717Z,22.30
2018-06-12T11:09:10.186Z,22.50
2018-06-12T11:11:38.678Z,22.60
2018-06-12T11:14:07.173Z,22.70
2018-06-12T11:16:35.660Z,22.80
2018-06-12T11:19:04.148Z,22.80
2018-06-12T11:21:32.593Z,22.40
2018-06-12T11:24:01.046Z,21.50
2018-06-12T11:26:29.506Z,20.90
2018-06-12T11:31:26.317Z,19.50
2018-06-12T11:33:54.774Z,19.10
2018-06-12T11:36:23.248Z,18.80
2018-06-12T11:38:51.694Z,18.40
2018-06-12T11:41:20.141Z,18.00
2018-06-12T11:43:48.633Z,17.60
2018-06-12T11:46:17.089Z,17.20
2018-06-12T11:48:45.532Z,16.90
2018-06-12T11:51:13.996Z,16.80
2018-06-12T11:53:42.530Z,16.90
2018-06-12T11:56:11.001Z,17.00
2018-06-12T11:58:39.449Z,16.80
2018-06-12T12:01:08.083Z,16.90
2018-06-12T12:03:36.549Z,17.00
2018-06-12T12:06:05.038Z,17.00
2018-06-12T12:08:33.557Z,17.00
2018-06-12T12:11:01.990Z,17.00
2018-06-12T12:18:26.855Z,16.80
2018-06-12T12:20:55.351Z,16.80
2018-06-12T12:23:23.794Z,16.80
2018-06-12T12:25:52.392Z,16.70
2018-06-12T12:28:20.829Z,16.70
2018-06-12T12:30:49.266Z,16.50
2018-06-12T12:33:17.711Z,16.50
2018-06-12T12:35:46.461Z,16.40
2018-06-12T12:38:15.101Z,16.10
2018-06-12T12:40:43.791Z,16.10
2018-06-12T12:43:12.493Z,16.00
2018-06-12T12:45:40.930Z,15.90
2018-06-12T12:48:09.385Z,16.00
2018-06-12T12:50:38.096Z,16.00
2018-06-12T12:53:06.720Z,16.10
2018-06-12T12:55:35.060Z,16.30
2018-06-12T12:58:03.556Z,16.30
2018-06-12T13:03:00.207Z,16.50
2018-06-12T13:05:28.666Z,16.40
2018-06-12T13:07:57.257Z,16.40
2018-06-12T13:10:25.723Z,16.50
2018-06-12T13:12:54.320Z,16.50
2018-06-12T13:15:22.802Z,16.50
2018-06-12T13:17:52.146Z,16.60
2018-06-12T13:20:20.592Z,16.50
2018-06-12T13:22:49.079Z,16.50
2018-06-12T13:25:17.595Z,16.50
2018-06-12T13:27:46.063Z,16.60
2018-06-12T13:30:14.568Z,16.40
2018-06-12T13:32:43.015Z,16.20
2018-06-12T13:35:11.581Z,16.30
2018-06-12T13:37:40.055Z,16.40
2018-06-12T13:40:08.545Z,16.30
2018-06-12T13:42:37.009Z,16.20
2018-06-12T13:45:05.442Z,16.20
2018-06-12T13:47:33.855Z,16.10
2018-06-12T13:50:02.334Z,16.00
2018-06-12T13:52:30.799Z,16.00
2018-06-12T13:54:59.270Z,16.10
2018-06-12T13:59:55.854Z,16.10
2018-06-12T14:02:24.353Z,16.10
2018-06-12T14:04:52.828Z,16.20
2018-06-12T14:07:21.305Z,16.20
2018-06-12T14:09:49.734Z,16.10
2018-06-12T14:12:18.225Z,16.20
2018-06-12T14:17:15.178Z,16.10
2018-06-12T14:19:44.441Z,16.10
2018-06-12T14:22:13.073Z,16.20
2018-06-12T14:24:41.520Z,16.10
2018-06-12T14:27:09.952Z,16.30
2018-06-12T14:29:38.718Z,16.50
2018-06-12T14:32:07.166Z,16.60
2018-06-12T14:34:35.627Z,16.60
2018-06-12T14:37:04.084Z,16.60
2018-06-12T14:39:32.538Z,16.90
2018-06-12T14:42:00.982Z,17.00
2018-06-12T14:44:29.430Z,17.10
2018-06-12T14:46:57.883Z,17.00
2018-06-12T14:49:26.314Z,17.00
2018-06-12T14:51:54.923Z,16.90
2018-06-12T14:54:23.577Z,17.10
2018-06-12T14:56:52.073Z,17.20
2018-06-12T14:59:20.515Z,17.60
2018-06-12T15:01:49.220Z,17.50
2018-06-12T15:04:17.672Z,17.80
2018-06-12T15:06:46.134Z,17.70
2018-06-12T15:09:14.570Z,17.90
2018-06-12T15:11:43.137Z,17.80
2018-06-12T15:14:11.596Z,17.90
2018-06-12T15:16:40.046Z,18.10
2018-06-12T15:19:08.491Z,18.10
2018-06-12T15:21:36.930Z,18.20
2018-06-12T15:24:05.790Z,18.00
2018-06-12T15:26:34.195Z,17.90
2018-06-12T15:29:02.793Z,17.90
2018-06-12T15:33:59.678Z,17.80
2018-06-12T15:36:28.270Z,17.70
2018-06-12T15:38:57.589Z,17.70
2018-06-12T15:41:26.175Z,17.70
2018-06-12T15:43:54.658Z,17.70
2018-06-12T15:46:23.092Z,17.90
2018-06-12T15:48:51.669Z,17.80
2018-06-12T15:51:20.102Z,17.80
2018-06-12T15:53:48.555Z,17.80
2018-06-12T15:58:45.214Z,17.90
2018-06-12T16:01:13.722Z,18.00
2018-06-12T16:03:42.181Z,18.10
2018-06-12T16:06:10.673Z,18.10
2018-06-12T16:08:39.151Z,18.20
2018-06-12T16:11:07.626Z,18.30
2018-06-12T16:18:32.606Z,18.00
2018-06-12T16:21:01.075Z,18.30
2018-06-12T16:23:29.921Z,18.40
2018-06-12T16:25:58.437Z,18.50
2018-06-12T16:28:26.929Z,18.60
2018-06-12T16:30:55.366Z,18.80
2018-06-12T16:33:23.826Z,18.70
2018-06-12T16:35:52.382Z,18.70
2018-06-12T16:38:20.790Z,18.80
2018-06-12T16:40:49.226Z,18.60
2018-06-12T16:43:17.669Z,18.50
2018-06-12T16:45:46.153Z,18.40
2018-06-12T16:48:14.774Z,18.40
2018-06-12T16:50:43.239Z,18.30
2018-06-12T16:53:11.999Z,18.30
2018-06-12T16:55:40.431Z,18.30
2018-06-12T16:58:09.885Z,18.30
2018-06-12T17:00:38.349Z,18.30
2018-06-12T17:03:06.849Z,18.30
2018-06-12T17:05:35.401Z,18.30
2018-06-12T17:08:04.011Z,18.30
2018-06-12T17:13:01.015Z,18.40
2018-06-12T17:15:29.490Z,18.40
2018-06-12T17:20:26.179Z,18.50
2018-06-12T17:22:54.896Z,18.50
2018-06-12T17:25:23.358Z,18.50
2018-06-12T17:27:51.993Z,18.50
2018-06-12T17:32:48.650Z,18.50
2018-06-12T17:35:17.147Z,18.60
2018-06-12T17:37:45.669Z,18.60
2018-06-12T17:40:14.497Z,18.60
2018-06-12T17:42:43.037Z,18.60
2018-06-12T17:45:11.487Z,18.50
2018-06-12T17:50:08.317Z,18.50
2018-06-12T17:52:36.795Z,18.40
2018-06-12T17:55:05.296Z,18.30
2018-06-12T17:57:34.229Z,18.30
2018-06-12T18:00:02.726Z,18.10
2018-06-12T18:02:31.160Z,17.60
2018-06-12T18:07:27.858Z,17.00
2018-06-12T18:09:56.334Z,16.80
2018-06-12T18:12:24.757Z,16.80
2018-06-12T18:14:53.210Z,16.80
2018-06-12T18:17:21.653Z,16.70
2018-06-12T18:19:55.566Z,16.60
2018-06-12T18:22:24.090Z,16.70
2018-06-12T18:24:52.536Z,16.60
2018-06-12T18:27:21.057Z,16.50
2018-06-12T18:29:49.520Z,16.40
2018-06-12T18:32:17.977Z,16.30
2018-06-12T18:34:46.417Z,16.30
2018-06-12T18:37:14.925Z,16.20
2018-06-12T18:39:43.599Z,16.10
2018-06-12T18:42:12.077Z,16.00
2018-06-12T18:44:40.558Z,16.10
2018-06-12T18:47:08.996Z,16.20
2018-06-12T18:49:37.447Z,16.00
2018-06-12T18:52:05.901Z,15.90
2018-06-12T18:54:34.390Z,15.80
2018-06-12T18:57:02.910Z,15.90
2018-06-12T18:59:31.353Z,15.80
2018-06-12T19:06:56.271Z,15.60
2018-06-12T19:09:24.725Z,15.50
2018-06-12T19:11:53.172Z,15.60
2018-06-12T19:16:49.824Z,15.50
2018-06-12T19:19:18.460Z,15.60
2018-06-12T19:21:46.917Z,15.60
2018-06-12T19:24:15.364Z,15.50
2018-06-12T19:26:44.055Z,15.50
2018-06-12T19:29:12.476Z,15.50
2018-06-12T19:31:40.936Z,15.50
2018-06-12T19:34:09.354Z,15.40
2018-06-12T19:36:37.798Z,15.50
2018-06-12T19:39:07.365Z,15.40
2018-06-12T19:41:35.881Z,15.50
2018-06-12T19:44:04.350Z,15.40
2018-06-12T19:46:32.776Z,15.40
2018-06-12T19:49:01.355Z,15.40
2018-06-12T19:51:29.771Z,15.40
2018-06-12T19:53:58.248Z,15.30
2018-06-12T19:56:26.657Z,15.30
2018-06-12T19:58:55.347Z,15.30
2018-06-12T20:01:23.814Z,15.30
2018-06-12T20:03:52.246Z,15.20
2018-06-12T20:06:20.771Z,15.10
2018-06-12T20:08:49.129Z,15.10
2018-06-12T20:11:17.605Z,15.10
2018-06-12T20:13:46.025Z,15.10
2018-06-12T20:16:14.496Z,15.20
2018-06-12T20:18:43.190Z,15.20
2018-06-12T20:21:11.770Z,15.20
2018-06-12T20:23:40.229Z,15.10
2018-06-12T20:26:08.674Z,15.10
2018-06-12T20:28:37.278Z,15.00
2018-06-12T20:31:05.755Z,14.90
2018-06-12T20:33:34.234Z,15.00
2018-06-12T20:36:02.976Z,15.00
2018-06-12T20:38:31.458Z,15.00
2018-06-12T20:40:59.881Z,15.10
2018-06-12T20:43:28.342Z,15.10
2018-06-12T20:45:56.787Z,15.10
2018-06-12T20:48:25.235Z,15.00
2018-06-12T20:50:53.771Z,15.10
2018-06-12T20:53:23.216Z,15.10
2018-06-12T20:55:51.654Z,15.10
2018-06-12T20:58:20.123Z,15.00
2018-06-12T21:00:48.602Z,14.90
2018-06-12T21:03:17.102Z,14.80
2018-06-12T21:05:45.602Z,14.80
2018-06-12T21:08:14.085Z,14.90
2018-06-12T21:13:10.718Z,14.80
2018-06-12T21:15:39.171Z,14.80
2018-06-12T21:18:08.092Z,14.60
2018-06-12T21:20:36.775Z,14.50
2018-06-12T21:23:05.297Z,14.50
2018-06-12T21:25:33.742Z,14.40
2018-06-12T21:28:02.194Z,14.40
2018-06-12T21:30:30.617Z,14.40
2018-06-12T21:32:59.056Z,14.40
2018-06-12T21:35:27.522Z,14.30
2018-06-12T21:37:55.950Z,14.30
2018-06-12T21:40:24.386Z,14.30
2018-06-12T21:42:52.812Z,14.30
2018-06-12T21:45:21.693Z,14.30
2018-06-12T21:47:50.129Z,14.20
2018-06-12T21:50:18.585Z,14.20
2018-06-12T21:52:47.061Z,14.20
2018-06-12T21:55:15.514Z,14.00
2018-06-12T21:57:43.978Z,14.10
2018-06-12T22:00:14.165Z,14.10
2018-06-12T22:02:42.614Z,14.10
2018-06-12T22:05:11.045Z,14.10
2018-06-12T22:07:39.513Z,14.10
2018-06-12T22:10:08.013Z,14.10
2018-06-12T22:12:36.463Z,14.00
2018-06-12T22:17:33.017Z,14.00
2018-06-12T22:20:01.449Z,14.10
2018-06-12T22:22:29.881Z,14.00
2018-06-12T22:27:26.492Z,14.00
2018-06-12T22:29:55.001Z,14.00
2018-06-12T22:32:24.468Z,14.00
2018-06-12T22:34:52.826Z,13.90
2018-06-12T22:37:21.237Z,14.00
2018-06-12T22:39:49.764Z,14.00
2018-06-12T22:44:46.329Z,14.00
2018-06-12T22:49:42.981Z,13.80
2018-06-12T22:54:39.538Z,13.80
2018-06-12T22:59:36.167Z,13.80
2018-06-12T23:02:04.618Z,13.80
2018-06-12T23:04:33.053Z,13.70
2018-06-12T23:07:01.510Z,13.80
2018-06-12T23:09:30.015Z,13.80
2018-06-12T23:14:26.842Z,13.70
2018-06-12T23:16:55.360Z,13.70
2018-06-12T23:19:23.821Z,13.70
2018-06-12T23:21:58.298Z,13.70
2018-06-12T23:24:26.861Z,13.60
2018-06-12T23:26:55.362Z,13.60
2018-06-12T23:29:23.833Z,13.60
2018-06-12T23:31:52.266Z,13.60
2018-06-12T23:34:20.693Z,13.50
2018-06-12T23:36:49.120Z,13.50
2018-06-12T23:39:17.611Z,13.50
2018-06-12T23:41:46.254Z,13.40
2018-06-12T23:44:14.693Z,13.30
2018-06-12T23:46:43.149Z,13.40
2018-06-12T23:49:11.579Z,13.40
2018-06-12T23:51:40.035Z,13.20
2018-06-12T23:54:08.733Z,13.20
2018-06-12T23:59:05.362Z,13.20
